createdAt,value
2018-07-19T00:04:00.148Z,19.42
2018-07-19T00:06:29.001Z,19.38
2018-07-19T00:08:58.624Z,19.35
2018-07-19T00:11:27.542Z,19.40
2018-07-19T00:13:56.165Z,19.45
2018-07-19T00:16:24.913Z,19.52
2018-07-19T00:18:53.601Z,19.51
2018-07-19T00:21:22.197Z,19.54
2018-07-19T00:23:50.823Z,19.56
2018-07-19T00:26:19.411Z,19.75
2018-07-19T00:28:48.099Z,19.73
2018-07-19T00:31:18.329Z,19.74
2018-07-19T00:33:46.965Z,20.11
2018-07-19T00:36:15.595Z,20.09
2018-07-19T00:38:44.195Z,20.00
2018-07-19T00:41:13.085Z,20.06
2018-07-19T00:43:41.640Z,20.13
2018-07-19T00:46:10.240Z,20.13
2018-07-19T00:48:38.973Z,20.24
2018-07-19T00:51:07.943Z,20.18
2018-07-19T00:53:36.523Z,20.27
2018-07-19T00:56:06.276Z,20.25
2018-07-19T00:58:35.014Z,20.35
2018-07-19T01:01:03.605Z,20.27
2018-07-19T01:03:32.168Z,20.43
2018-07-19T01:06:00.797Z,20.34
2018-07-19T01:08:29.404Z,20.38
2018-07-19T01:10:58.021Z,20.37
2018-07-19T01:13:26.678Z,20.37
2018-07-19T01:15:55.257Z,20.35
2018-07-19T01:18:23.880Z,20.34
2018-07-19T01:20:52.493Z,20.52
2018-07-19T01:23:21.528Z,20.46
2018-07-19T01:25:50.115Z,20.41
2018-07-19T01:28:18.875Z,20.52
2018-07-19T01:30:47.513Z,20.46
2018-07-19T01:33:16.625Z,20.53
2018-07-19T01:35:45.209Z,20.57
2018-07-19T01:38:13.778Z,20.48
2018-07-19T01:40:42.791Z,20.42
2018-07-19T01:43:11.497Z,20.29
2018-07-19T01:45:40.181Z,20.17
2018-07-19T01:48:08.798Z,20.28
2018-07-19T01:50:37.533Z,20.23
2018-07-19T01:53:06.109Z,20.25
2018-07-19T01:55:34.718Z,20.19
2018-07-19T01:58:03.299Z,20.04
2018-07-19T02:00:32.756Z,20.04
2018-07-19T02:03:01.317Z,20.15
2018-07-19T02:05:39.781Z,20.12
2018-07-19T02:08:09.680Z,20.06
2018-07-19T02:10:38.235Z,20.07
2018-07-19T02:13:07.089Z,20.03
2018-07-19T02:15:36.874Z,20.05
2018-07-19T02:18:05.751Z,20.05
2018-07-19T02:20:34.352Z,20.10
2018-07-19T02:23:03.104Z,20.01
2018-07-19T02:25:31.694Z,19.93
2018-07-19T02:28:00.579Z,19.93
2018-07-19T02:30:29.244Z,20.00
2018-07-19T02:32:57.885Z,20.05
2018-07-19T02:35:26.672Z,20.00
2018-07-19T02:37:55.224Z,20.05
2018-07-19T02:40:23.809Z,19.90
2018-07-19T02:42:52.613Z,19.89
2018-07-19T02:45:21.211Z,19.80
2018-07-19T02:47:50.152Z,19.80
2018-07-19T02:50:18.751Z,19.61
2018-07-19T02:52:47.420Z,19.76
2018-07-19T02:55:16.125Z,19.69
2018-07-19T02:57:44.697Z,19.90
2018-07-19T03:00:13.267Z,19.76
2018-07-19T03:02:41.856Z,19.95
2018-07-19T03:05:10.666Z,19.83
2018-07-19T03:07:39.319Z,19.70
2018-07-19T03:10:07.818Z,19.67
2018-07-19T03:12:36.411Z,19.75
2018-07-19T03:15:05.146Z,19.86
2018-07-19T03:17:33.702Z,19.85
2018-07-19T03:20:02.260Z,19.65
2018-07-19T03:22:30.990Z,19.59
2018-07-19T03:24:59.567Z,19.56
2018-07-19T03:27:28.111Z,19.65
2018-07-19T03:29:56.667Z,19.60
2018-07-19T03:32:25.295Z,19.75
2018-07-19T03:34:53.900Z,19.65
2018-07-19T03:37:22.723Z,19.72
2018-07-19T03:39:51.346Z,19.50
2018-07-19T03:42:20.077Z,19.64
2018-07-19T03:44:48.650Z,19.62
2018-07-19T03:47:17.387Z,19.60
2018-07-19T03:49:45.983Z,19.67
2018-07-19T03:52:14.599Z,19.67
2018-07-19T03:54:43.172Z,19.73
2018-07-19T03:57:11.905Z,19.71
2018-07-19T03:59:40.480Z,19.80
2018-07-19T04:02:10.000Z,19.80
2018-07-19T04:04:38.923Z,19.93
2018-07-19T04:07:08.412Z,19.86
2018-07-19T04:09:37.296Z,19.80
2018-07-19T04:12:05.890Z,19.78
2018-07-19T04:14:34.484Z,19.80
2018-07-19T04:17:03.131Z,19.76
2018-07-19T04:19:31.701Z,19.81
2018-07-19T04:22:00.290Z,19.83
2018-07-19T04:24:28.847Z,19.97
2018-07-19T04:26:57.391Z,19.95
2018-07-19T04:29:26.015Z,19.93
2018-07-19T04:31:54.613Z,20.08
2018-07-19T04:34:23.386Z,20.04
2018-07-19T04:36:52.214Z,19.92
2018-07-19T04:39:20.867Z,19.94
2018-07-19T04:41:49.456Z,20.19
2018-07-19T04:44:18.205Z,20.16
2018-07-19T04:46:47.341Z,19.99
2018-07-19T04:49:15.962Z,20.14
2018-07-19T04:51:44.540Z,20.18
2018-07-19T04:54:13.080Z,20.16
2018-07-19T04:56:41.660Z,20.07
2018-07-19T04:59:10.240Z,20.06
2018-07-19T05:01:38.842Z,20.29
2018-07-19T05:04:07.859Z,20.05
2018-07-19T05:06:36.500Z,20.12
2018-07-19T05:09:07.486Z,20.20
2018-07-19T05:11:36.204Z,20.30
2018-07-19T05:14:05.445Z,20.38
2018-07-19T05:16:34.556Z,20.47
2018-07-19T05:19:03.632Z,20.45
2018-07-19T05:21:32.347Z,20.47
2018-07-19T05:24:00.965Z,20.56
2018-07-19T05:26:29.667Z,20.65
2018-07-19T05:28:58.492Z,20.80
2018-07-19T05:31:27.343Z,20.50
2018-07-19T05:33:55.916Z,20.60
2018-07-19T05:36:24.527Z,20.71
2018-07-19T05:38:53.335Z,20.89
2018-07-19T05:41:21.983Z,20.84
2018-07-19T05:43:50.569Z,20.90
2018-07-19T05:46:19.411Z,20.89
2018-07-19T05:48:48.207Z,20.97
2018-07-19T05:51:16.890Z,21.14
2018-07-19T05:53:45.444Z,21.09
2018-07-19T05:56:13.999Z,21.11
2018-07-19T05:58:43.070Z,21.26
2018-07-19T06:01:12.009Z,21.23
2018-07-19T06:03:40.585Z,21.32
2018-07-19T06:06:10.820Z,21.38
2018-07-19T06:08:39.628Z,21.27
2018-07-19T06:11:08.571Z,21.17
2018-07-19T06:13:37.215Z,21.32
2018-07-19T06:16:06.206Z,21.62
2018-07-19T06:18:34.839Z,21.63
2018-07-19T06:21:04.914Z,21.68
2018-07-19T06:23:33.547Z,21.81
2018-07-19T06:26:02.236Z,21.88
2018-07-19T06:28:30.805Z,21.84
2018-07-19T06:30:59.393Z,21.91
2018-07-19T06:33:28.553Z,21.92
2018-07-19T06:35:57.578Z,21.83
2018-07-19T06:38:26.364Z,22.00
2018-07-19T06:40:54.939Z,21.91
2018-07-19T06:43:23.540Z,22.14
2018-07-19T06:45:52.559Z,22.23
2018-07-19T06:48:21.149Z,22.35
2018-07-19T06:50:50.551Z,22.34
2018-07-19T06:53:19.190Z,22.38
2018-07-19T06:55:47.750Z,22.59
2018-07-19T06:58:16.331Z,22.61
2018-07-19T07:00:44.899Z,22.81
2018-07-19T07:03:15.264Z,22.65
2018-07-19T07:05:43.868Z,22.73
2018-07-19T07:08:12.543Z,22.67
2018-07-19T07:10:41.153Z,22.85
2018-07-19T07:15:37.340Z,23.01
2018-07-19T07:18:06.332Z,23.17
2018-07-19T07:20:35.624Z,23.24
2018-07-19T07:23:04.869Z,23.35
2018-07-19T07:25:47.516Z,23.42
2018-07-19T07:28:16.208Z,23.62
2018-07-19T07:30:44.784Z,23.64
2018-07-19T07:33:16.353Z,23.79
2018-07-19T07:35:45.468Z,23.83
2018-07-19T07:38:14.126Z,23.85
2018-07-19T07:40:42.751Z,23.95
2018-07-19T07:43:13.284Z,24.10
2018-07-19T07:45:42.595Z,24.23
2018-07-19T07:48:11.446Z,24.23
2018-07-19T07:50:40.069Z,24.36
2018-07-19T07:53:09.227Z,24.55
2018-07-19T07:55:37.825Z,24.50
2018-07-19T07:58:06.440Z,24.33
2018-07-19T08:00:35.473Z,24.54
2018-07-19T08:03:04.133Z,24.54
2018-07-19T08:05:33.235Z,24.74
2018-07-19T08:08:01.837Z,24.76
2018-07-19T08:10:30.441Z,24.94
2018-07-19T08:12:59.011Z,25.09
2018-07-19T08:15:27.667Z,25.42
2018-07-19T08:17:56.515Z,25.33
2018-07-19T08:20:25.508Z,25.40
2018-07-19T08:22:54.070Z,25.44
2018-07-19T08:25:23.134Z,25.58
2018-07-19T08:27:52.208Z,25.46
2018-07-19T08:30:20.860Z,25.60
2018-07-19T08:32:49.447Z,25.62
2018-07-19T08:35:18.033Z,25.82
2018-07-19T08:37:46.609Z,25.91
2018-07-19T08:40:15.192Z,25.85
2018-07-19T08:42:43.788Z,25.80
2018-07-19T08:45:12.450Z,25.72
2018-07-19T08:47:41.147Z,25.88
2018-07-19T08:50:09.740Z,26.10
2018-07-19T08:52:38.343Z,26.24
2018-07-19T08:55:06.919Z,26.29
2018-07-19T08:57:35.536Z,26.23
2018-07-19T09:00:04.208Z,26.20
2018-07-19T09:02:32.789Z,26.33
2018-07-19T09:05:01.400Z,26.54
2018-07-19T09:07:30.027Z,26.65
2018-07-19T09:09:58.600Z,26.54
2018-07-19T09:12:27.179Z,26.69
2018-07-19T09:14:56.020Z,26.91
2018-07-19T09:17:24.592Z,26.92
2018-07-19T09:19:53.168Z,26.97
2018-07-19T09:22:21.838Z,27.04
2018-07-19T09:24:50.474Z,26.93
2018-07-19T09:27:19.528Z,26.95
2018-07-19T09:29:48.123Z,27.00
2018-07-19T09:32:16.835Z,27.07
2018-07-19T09:34:45.461Z,27.09
2018-07-19T09:37:14.608Z,27.33
2018-07-19T09:39:43.584Z,27.40
2018-07-19T09:42:12.158Z,27.50
2018-07-19T09:44:40.745Z,27.61
2018-07-19T09:47:09.392Z,27.75
2018-07-19T09:49:37.956Z,27.86
2018-07-19T09:52:06.619Z,27.84
2018-07-19T09:54:46.437Z,27.97
2018-07-19T09:57:15.730Z,28.10
2018-07-19T09:59:44.635Z,27.96
2018-07-19T10:02:13.276Z,27.93
2018-07-19T10:04:42.173Z,27.87
2018-07-19T10:07:11.720Z,27.96
2018-07-19T10:09:40.367Z,28.03
2018-07-19T10:12:10.052Z,28.02
2018-07-19T10:14:39.571Z,28.16
2018-07-19T10:17:08.228Z,28.36
2018-07-19T10:19:37.335Z,28.54
2018-07-19T10:22:06.758Z,28.50
2018-07-19T10:24:35.353Z,28.38
2018-07-19T10:27:03.978Z,28.26
2018-07-19T10:29:32.956Z,28.21
2018-07-19T10:32:01.607Z,28.13
2018-07-19T10:34:30.159Z,27.80
2018-07-19T10:36:58.856Z,27.75
2018-07-19T10:39:27.548Z,28.05
2018-07-19T10:41:56.132Z,28.13
2018-07-19T10:44:24.832Z,28.33
2018-07-19T10:46:53.368Z,27.96
2018-07-19T10:49:21.984Z,28.15
2018-07-19T10:51:50.797Z,28.35
2018-07-19T10:54:19.794Z,28.55
2018-07-19T10:56:48.378Z,28.15
2018-07-19T10:59:16.999Z,27.91
2018-07-19T11:01:45.612Z,27.81
2018-07-19T11:04:14.436Z,28.22
2018-07-19T11:06:43.048Z,28.65
2018-07-19T11:09:12.199Z,28.75
2018-07-19T11:11:40.999Z,29.04
2018-07-19T11:14:09.580Z,29.16
2018-07-19T11:16:38.196Z,29.19
2018-07-19T11:19:06.807Z,29.34
2018-07-19T11:21:35.610Z,28.93
2018-07-19T11:24:04.582Z,28.86
2018-07-19T11:26:33.315Z,28.76
2018-07-19T11:29:01.884Z,28.93
2018-07-19T11:31:30.558Z,28.57
2018-07-19T11:33:59.532Z,28.56
2018-07-19T11:36:28.229Z,28.58
2018-07-19T11:38:56.943Z,28.89
2018-07-19T11:41:25.552Z,28.67
2018-07-19T11:43:54.156Z,28.11
2018-07-19T11:46:22.751Z,28.48
2018-07-19T11:48:51.311Z,28.78
2018-07-19T11:51:19.965Z,28.28
2018-07-19T11:53:48.512Z,28.45
2018-07-19T11:56:17.266Z,28.96
2018-07-19T11:58:45.942Z,29.26
2018-07-19T12:01:15.597Z,29.59
2018-07-19T12:03:44.183Z,29.24
2018-07-19T12:06:12.806Z,29.53
2018-07-19T12:08:41.343Z,29.49
2018-07-19T12:11:10.094Z,29.02
2018-07-19T12:13:38.707Z,29.20
2018-07-19T12:16:07.291Z,29.34
2018-07-19T12:18:35.864Z,29.67
2018-07-19T12:21:06.519Z,29.58
2018-07-19T12:23:38.889Z,29.49
2018-07-19T12:26:08.330Z,29.95
2018-07-19T12:28:36.950Z,30.12
2018-07-19T12:31:06.645Z,29.72
2018-07-19T12:33:35.444Z,29.27
2018-07-19T12:36:04.068Z,29.65
2018-07-19T12:38:32.614Z,30.05
2018-07-19T12:41:01.367Z,30.33
2018-07-19T12:43:29.940Z,29.96
2018-07-19T12:45:58.497Z,29.92
2018-07-19T12:48:27.081Z,29.90
2018-07-19T12:50:55.715Z,29.59
2018-07-19T12:53:24.566Z,29.56
2018-07-19T12:55:53.117Z,29.77
2018-07-19T12:58:21.736Z,29.93
2018-07-19T13:00:50.308Z,30.41
2018-07-19T13:03:19.004Z,29.63
2018-07-19T13:05:47.644Z,29.66
2018-07-19T13:08:16.397Z,29.79
2018-07-19T13:10:45.008Z,30.00
2018-07-19T13:13:13.736Z,30.39
2018-07-19T13:15:42.338Z,30.81
2018-07-19T13:18:10.934Z,31.16
2018-07-19T13:20:39.572Z,31.32
2018-07-19T13:23:08.192Z,30.42
2018-07-19T13:25:36.760Z,30.49
2018-07-19T13:28:05.462Z,30.49
2018-07-19T13:30:34.119Z,30.81
2018-07-19T13:33:02.753Z,30.92
2018-07-19T13:35:31.552Z,31.13
2018-07-19T13:38:00.146Z,31.23
2018-07-19T13:40:29.035Z,30.71
2018-07-19T13:42:57.671Z,29.92
2018-07-19T13:45:26.600Z,30.38
2018-07-19T13:47:55.136Z,30.87
2018-07-19T13:50:23.734Z,31.15
2018-07-19T13:53:03.511Z,31.21
2018-07-19T13:55:32.198Z,31.20
2018-07-19T13:58:00.760Z,31.35
2018-07-19T14:00:29.562Z,31.59
2018-07-19T14:02:58.407Z,31.82
2018-07-19T14:05:27.147Z,31.78
2018-07-19T14:07:55.911Z,31.54
2018-07-19T14:10:24.837Z,31.20
2018-07-19T14:12:53.888Z,31.31
2018-07-19T14:15:24.404Z,31.60
2018-07-19T14:17:55.017Z,31.64
2018-07-19T14:20:23.634Z,31.80
2018-07-19T14:22:53.100Z,31.61
2018-07-19T14:25:21.711Z,30.96
2018-07-19T14:27:50.268Z,30.88
2018-07-19T14:30:18.953Z,30.83
2018-07-19T14:32:47.512Z,30.68
2018-07-19T14:35:17.096Z,30.77
2018-07-19T14:37:45.805Z,30.69
2018-07-19T14:40:14.523Z,30.32
2018-07-19T14:42:43.595Z,30.19
2018-07-19T14:45:15.546Z,30.30
2018-07-19T14:47:44.125Z,30.30
2018-07-19T14:50:13.039Z,30.03
2018-07-19T14:52:41.633Z,30.16
2018-07-19T14:55:10.287Z,30.50
2018-07-19T14:57:38.954Z,30.65
2018-07-19T15:00:08.443Z,30.55
2018-07-19T15:02:37.107Z,30.56
2018-07-19T15:05:05.926Z,30.53
2018-07-19T15:07:34.473Z,30.67
2018-07-19T15:10:03.081Z,31.03
2018-07-19T15:12:31.637Z,31.14
2018-07-19T15:15:00.300Z,31.24
2018-07-19T15:17:28.947Z,31.25
2018-07-19T15:19:57.505Z,31.30
2018-07-19T15:22:26.088Z,31.35
2018-07-19T15:24:54.669Z,31.17
2018-07-19T15:27:23.203Z,30.87
2018-07-19T15:29:51.812Z,30.74
2018-07-19T15:32:20.571Z,30.02
2018-07-19T15:34:49.153Z,29.98
2018-07-19T15:37:17.864Z,29.85
2018-07-19T15:39:46.489Z,29.72
2018-07-19T15:42:15.121Z,29.46
2018-07-19T15:44:43.683Z,29.43
2018-07-19T15:47:12.593Z,29.35
2018-07-19T15:49:41.183Z,29.06
2018-07-19T15:52:09.784Z,28.69
2018-07-19T15:54:38.599Z,28.81
2018-07-19T15:57:07.369Z,29.04
2018-07-19T15:59:35.924Z,29.15
2018-07-19T16:02:04.549Z,29.31
2018-07-19T16:04:33.170Z,29.28
2018-07-19T16:07:01.808Z,29.11
2018-07-19T16:09:30.392Z,29.16
2018-07-19T16:11:58.964Z,29.33
2018-07-19T16:14:28.319Z,29.20
2018-07-19T16:16:57.708Z,29.22
2018-07-19T16:19:26.539Z,29.07
2018-07-19T16:21:55.196Z,28.83
2018-07-19T16:24:23.771Z,28.65
2018-07-19T16:26:52.358Z,28.63
2018-07-19T16:29:21.010Z,28.68
2018-07-19T16:31:49.604Z,28.67
2018-07-19T16:34:18.244Z,28.65
2018-07-19T16:36:47.032Z,28.62
2018-07-19T16:39:15.689Z,28.74
2018-07-19T16:41:44.349Z,28.56
2018-07-19T16:44:12.955Z,28.55
2018-07-19T16:46:41.561Z,28.57
2018-07-19T16:49:10.400Z,28.47
2018-07-19T16:51:38.998Z,28.29
2018-07-19T16:54:07.719Z,28.31
2018-07-19T16:56:36.284Z,28.47
2018-07-19T16:59:05.105Z,28.49
2018-07-19T17:01:33.699Z,28.53
2018-07-19T17:04:02.296Z,28.57
2018-07-19T17:06:30.846Z,28.64
2018-07-19T17:08:59.463Z,28.62
2018-07-19T17:11:28.205Z,28.46
2018-07-19T17:13:56.773Z,28.49
2018-07-19T17:16:25.398Z,28.54
2018-07-19T17:18:54.094Z,28.54
2018-07-19T17:21:22.852Z,28.38
2018-07-19T17:23:51.439Z,28.41
2018-07-19T17:26:20.209Z,28.42
2018-07-19T17:28:48.787Z,28.22
2018-07-19T17:31:17.668Z,28.20
2018-07-19T17:33:46.240Z,28.14
2018-07-19T17:36:14.871Z,27.96
2018-07-19T17:38:43.448Z,27.75
2018-07-19T17:41:12.499Z,27.83
2018-07-19T17:43:41.078Z,27.87
2018-07-19T17:46:09.649Z,27.72
2018-07-19T17:48:38.324Z,27.52
2018-07-19T17:51:06.974Z,27.33
2018-07-19T17:53:35.707Z,27.18
2018-07-19T17:56:04.303Z,27.17
2018-07-19T17:58:32.904Z,27.09
2018-07-19T18:01:01.482Z,26.95
2018-07-19T18:03:36.904Z,26.80
2018-07-19T18:06:06.276Z,26.58
2018-07-19T18:08:34.871Z,26.41
2018-07-19T18:11:03.598Z,26.32
2018-07-19T18:13:32.626Z,26.18
2018-07-19T18:16:01.301Z,26.01
2018-07-19T18:18:29.822Z,25.87
2018-07-19T18:20:58.408Z,25.78
2018-07-19T18:23:27.257Z,25.67
2018-07-19T18:25:55.969Z,25.52
2018-07-19T18:28:24.840Z,25.33
2018-07-19T18:30:53.476Z,25.17
2018-07-19T18:33:22.069Z,25.02
2018-07-19T18:35:50.895Z,24.90
2018-07-19T18:38:19.623Z,24.68
2018-07-19T18:40:48.408Z,24.57
2018-07-19T18:43:16.959Z,24.47
2018-07-19T18:45:45.579Z,24.24
2018-07-19T18:48:14.197Z,24.23
2018-07-19T18:50:42.736Z,24.01
2018-07-19T18:53:12.676Z,23.96
2018-07-19T18:55:41.516Z,23.86
2018-07-19T18:58:10.207Z,23.69
2018-07-19T19:00:38.780Z,23.55
2018-07-19T19:03:07.381Z,23.40
2018-07-19T19:05:36.000Z,23.33
2018-07-19T19:08:04.999Z,23.27
2018-07-19T19:10:33.565Z,23.13
2018-07-19T19:13:02.149Z,22.93
2018-07-19T19:15:30.893Z,22.80
2018-07-19T19:17:59.464Z,22.78
2018-07-19T19:20:28.055Z,22.72
2018-07-19T19:22:56.627Z,22.74
2018-07-19T19:25:25.464Z,22.79
2018-07-19T19:27:53.975Z,22.79
2018-07-19T19:30:22.793Z,22.75
2018-07-19T19:32:51.403Z,22.83
2018-07-19T19:35:20.372Z,22.77
2018-07-19T19:37:48.954Z,22.61
2018-07-19T19:40:17.714Z,22.54
2018-07-19T19:42:46.306Z,22.43
2018-07-19T19:45:14.896Z,22.40
2018-07-19T19:47:43.699Z,22.41
2018-07-19T19:50:12.349Z,22.38
2018-07-19T19:52:41.143Z,22.35
2018-07-19T19:55:09.804Z,22.38
2018-07-19T19:57:38.502Z,22.41
2018-07-19T20:00:07.179Z,22.38
2018-07-19T20:02:36.580Z,22.46
2018-07-19T20:05:05.410Z,22.55
2018-07-19T20:07:36.583Z,22.61
2018-07-19T20:10:05.604Z,22.64
2018-07-19T20:12:34.194Z,22.64
2018-07-19T20:15:02.816Z,22.63
2018-07-19T20:17:31.395Z,22.63
2018-07-19T20:20:00.016Z,22.60
2018-07-19T20:22:28.599Z,22.59
2018-07-19T20:24:57.169Z,22.59
2018-07-19T20:27:25.894Z,22.57
2018-07-19T20:29:54.563Z,22.55
2018-07-19T20:32:23.399Z,22.55
2018-07-19T20:34:51.968Z,22.55
2018-07-19T20:37:21.436Z,22.48
2018-07-19T20:39:50.071Z,22.38
2018-07-19T20:42:18.665Z,22.22
2018-07-19T20:44:47.384Z,22.12
2018-07-19T20:47:16.052Z,22.04
2018-07-19T20:49:44.663Z,21.98
2018-07-19T20:52:13.255Z,21.92
2018-07-19T20:54:41.932Z,21.95
2018-07-19T20:57:10.555Z,22.00
2018-07-19T20:59:39.261Z,21.91
2018-07-19T21:02:08.287Z,21.80
2018-07-19T21:04:36.839Z,21.75
2018-07-19T21:07:05.408Z,21.71
2018-07-19T21:09:33.961Z,21.67
2018-07-19T21:12:02.545Z,21.69
2018-07-19T21:14:31.947Z,21.65
2018-07-19T21:17:00.542Z,21.64
2018-07-19T21:19:29.227Z,21.69
2018-07-19T21:21:57.833Z,21.67
2018-07-19T21:24:26.432Z,21.68
2018-07-19T21:26:55.084Z,21.60
2018-07-19T21:29:23.711Z,21.61
2018-07-19T21:31:52.624Z,21.60
2018-07-19T21:34:21.240Z,21.58
2018-07-19T21:36:49.824Z,21.66
2018-07-19T21:39:18.574Z,21.54
2018-07-19T21:41:47.237Z,21.48
2018-07-19T21:44:16.107Z,21.43
2018-07-19T21:46:44.693Z,21.34
2018-07-19T21:49:13.998Z,21.29
2018-07-19T21:51:42.632Z,21.26
2018-07-19T21:54:11.223Z,21.13
2018-07-19T21:56:39.812Z,21.11
2018-07-19T21:59:08.490Z,21.05
2018-07-19T22:01:41.169Z,20.95
2018-07-19T22:04:09.734Z,20.80
2018-07-19T22:06:39.166Z,20.66
2018-07-19T22:09:11.769Z,20.65
2018-07-19T22:11:40.689Z,20.58
2018-07-19T22:14:09.244Z,20.63
2018-07-19T22:16:39.368Z,20.63
2018-07-19T22:19:07.953Z,20.51
2018-07-19T22:21:36.546Z,20.48
2018-07-19T22:24:05.261Z,20.43
2018-07-19T22:26:33.961Z,20.31
2018-07-19T22:29:02.518Z,20.25
2018-07-19T22:31:31.166Z,20.21
2018-07-19T22:33:59.910Z,19.99
2018-07-19T22:36:28.463Z,19.96
2018-07-19T22:38:57.004Z,19.92
2018-07-19T22:41:25.619Z,19.70
2018-07-19T22:43:54.187Z,19.69
2018-07-19T22:46:22.795Z,19.56
2018-07-19T22:48:55.316Z,19.69
2018-07-19T22:51:24.513Z,19.50
2018-07-19T22:53:53.048Z,19.59
2018-07-19T22:56:21.907Z,19.82
2018-07-19T22:58:50.529Z,19.96
2018-07-19T23:01:19.232Z,19.91
2018-07-19T23:03:47.948Z,19.85
2018-07-19T23:06:16.512Z,19.48
2018-07-19T23:08:45.195Z,18.91
2018-07-19T23:11:14.838Z,19.00
2018-07-19T23:13:43.579Z,19.18
2018-07-19T23:16:12.180Z,19.17
2018-07-19T23:18:40.899Z,19.28
2018-07-19T23:21:10.012Z,19.46
2018-07-19T23:23:38.761Z,19.51
2018-07-19T23:26:07.340Z,19.53
2018-07-19T23:28:36.007Z,19.51
2018-07-19T23:31:04.944Z,19.47
2018-07-19T23:33:33.620Z,19.50
2018-07-19T23:36:20.756Z,19.52
2018-07-19T23:38:59.603Z,19.62
2018-07-19T23:41:33.476Z,19.49
2018-07-19T23:44:06.628Z,19.49
2018-07-19T23:46:40.363Z,19.36
2018-07-19T23:49:08.980Z,19.36
2018-07-19T23:51:38.794Z,19.38
2018-07-19T23:54:07.436Z,19.45
2018-07-19T23:56:36.312Z,19.44
2018-07-19T23:59:05.046Z,19.22
